Time;durP1;ratioP1;P1;durP2;ratioP2;P2;SDS_P1;SDS_P2;PMS_P1;PMS_P2;Temp;Humidity;BMP_temperature;BMP_pressure;BME280_temperature;BME280_humidity;BME280_pressure;Samples;Min_cycle;Max_cycle;Signal;HPM_P1;HPM_P2
2023/03/19 00:02:22;;;;;;;10.03;3.30;;;12.30;99.90;;;;;;5113317;28;20015;-74
2023/03/19 00:04:47;;;;;;;9.77;3.87;;;12.20;99.90;;;;;;5113933;28;20028;-73
2023/03/19 00:07:14;;;;;;;10.80;3.00;;;12.20;99.90;;;;;;5129482;27;20510;-73
2023/03/19 00:09:40;;;;;;;9.55;3.50;;;12.20;99.90;;;;;;5112430;28;20118;-74
2023/03/19 00:12:06;;;;;;;11.90;2.85;;;12.20;99.90;;;;;;5113653;28;20020;-74
2023/03/19 00:14:32;;;;;;;7.95;3.42;;;12.20;99.90;;;;;;5113060;28;20035;-73
2023/03/19 00:16:57;;;;;;;15.10;3.30;;;12.10;99.90;;;;;;5113391;28;20523;-73
2023/03/19 00:19:24;;;;;;;15.53;3.87;;;12.20;99.90;;;;;;5112993;28;20519;-74
2023/03/19 00:21:50;;;;;;;9.68;2.88;;;12.10;99.90;;;;;;5112773;28;20051;-73
2023/03/19 00:24:16;;;;;;;13.02;2.90;;;12.10;99.90;;;;;;5112858;28;20031;-73
2023/03/19 00:26:42;;;;;;;11.30;3.03;;;12.10;99.90;;;;;;5112969;28;20088;-73
2023/03/19 00:29:08;;;;;;;10.95;3.40;;;12.10;99.90;;;;;;5102767;28;20024;-74
2023/03/19 00:31:34;;;;;;;10.68;3.75;;;12.10;99.90;;;;;;5110922;28;20019;-73
2023/03/19 00:34:00;;;;;;;12.10;3.17;;;12.10;99.90;;;;;;5101878;28;20693;-74
2023/03/19 00:36:27;;;;;;;13.82;3.33;;;12.20;99.90;;;;;;5127038;27;20034;-73
2023/03/19 00:38:53;;;;;;;10.70;3.20;;;12.20;99.90;;;;;;5100264;28;20572;-74
2023/03/19 00:41:19;;;;;;;11.73;3.28;;;12.10;99.90;;;;;;5104945;28;20481;-73
2023/03/19 00:43:45;;;;;;;8.52;4.18;;;12.10;99.90;;;;;;5109529;28;20024;-73
2023/03/19 00:46:12;;;;;;;7.25;3.08;;;12.10;99.90;;;;;;5092123;28;20553;-73
2023/03/19 00:48:38;;;;;;;11.15;3.20;;;12.10;99.90;;;;;;5090723;28;20390;-73
2023/03/19 00:51:06;;;;;;;24.27;5.05;;;12.10;99.90;;;;;;5092751;28;20141;-74
2023/03/19 00:53:35;;;;;;;13.52;2.78;;;12.20;99.90;;;;;;5101942;28;20127;-74
2023/03/19 00:56:01;;;;;;;8.18;2.90;;;12.10;99.90;;;;;;5112238;28;20122;-74
2023/03/19 00:58:26;;;;;;;12.67;2.97;;;12.20;99.90;;;;;;5113243;28;20104;-74
2023/03/19 01:00:53;;;;;;;13.60;3.57;;;12.20;99.90;;;;;;5113027;28;20032;-74
2023/03/19 01:03:19;;;;;;;9.98;3.35;;;12.10;99.90;;;;;;5111666;28;20023;-74
2023/03/19 01:05:49;;;;;;;15.90;3.90;;;12.10;99.90;;;;;;5097040;28;20020;-74
2023/03/19 01:08:16;;;;;;;13.63;2.97;;;12.10;99.90;;;;;;5092701;28;20509;-74
2023/03/19 01:10:42;;;;;;;10.45;2.97;;;12.20;99.90;;;;;;5092386;28;20020;-74
2023/03/19 01:13:08;;;;;;;9.60;3.55;;;12.10;99.90;;;;;;5092522;28;20374;-74
2023/03/19 01:15:39;;;;;;;11.90;3.25;;;12.20;99.90;;;;;;5107871;28;20035;-73
2023/03/19 01:18:06;;;;;;;16.67;3.50;;;12.10;99.90;;;;;;5092107;28;20042;-74
2023/03/19 01:20:33;;;;;;;8.90;2.55;;;12.20;99.90;;;;;;5092474;28;20028;-73
2023/03/19 01:23:00;;;;;;;8.43;2.90;;;12.10;99.90;;;;;;5092480;28;20540;-73
2023/03/19 01:25:26;;;;;;;24.00;3.55;;;12.20;99.90;;;;;;5111161;28;20080;-74
2023/03/19 01:27:52;;;;;;;16.10;3.75;;;12.10;99.90;;;;;;5107626;28;20084;-74
2023/03/19 01:30:18;;;;;;;10.77;3.00;;;12.20;99.90;;;;;;5111093;28;20028;-74
2023/03/19 01:32:43;;;;;;;9.45;2.95;;;12.20;99.90;;;;;;5110859;28;21077;-74
2023/03/19 01:35:09;;;;;;;15.00;3.10;;;12.10;99.90;;;;;;5106191;28;20047;-74
2023/03/19 01:37:35;;;;;;;11.20;3.53;;;12.10;99.90;;;;;;5106069;28;20051;-73
2023/03/19 01:40:02;;;;;;;7.97;2.70;;;12.10;99.90;;;;;;5093084;28;20047;-73
2023/03/19 01:42:28;;;;;;;17.73;3.10;;;12.10;99.90;;;;;;5097670;27;20030;-74
2023/03/19 01:44:53;;;;;;;11.53;2.60;;;12.10;99.90;;;;;;5120820;27;20039;-73
2023/03/19 01:47:31;;;;;;;10.60;3.07;;;12.20;99.90;;;;;;5117509;27;20078;-74
2023/03/19 01:49:57;;;;;;;;;;;12.20;99.90;;;;;;5124826;27;20027;-73
2023/03/19 01:52:28;;;;;;;18.77;3.17;;;12.10;99.90;;;;;;5113684;27;20365;-73
2023/03/19 01:54:55;;;;;;;13.20;3.78;;;12.20;99.90;;;;;;5123455;27;20091;-74
2023/03/19 01:57:22;;;;;;;15.82;3.78;;;12.20;99.90;;;;;;5123939;27;20035;-74
2023/03/19 01:59:52;;;;;;;8.05;2.30;;;12.20;99.90;;;;;;5133613;27;20024;-73
2023/03/19 02:02:28;;;;;;;7.00;2.20;;;12.10;99.90;;;;;;5128864;27;20025;-74
2023/03/19 02:05:25;;;;;;;12.45;2.80;;;12.10;99.90;;;;;;5116625;27;20055;-74
2023/03/19 02:07:53;;;;;;;8.93;2.35;;;12.10;99.90;;;;;;5110857;27;20055;-74
2023/03/19 02:10:20;;;;;;;19.13;2.65;;;12.00;99.90;;;;;;5120021;27;20039;-73
2023/03/19 02:12:46;;;;;;;12.20;2.63;;;12.00;99.90;;;;;;5112269;27;20028;-73
2023/03/19 02:15:12;;;;;;;10.10;2.87;;;12.00;99.90;;;;;;5122222;27;20557;-73
2023/03/19 02:17:39;;;;;;;13.48;3.28;;;12.00;99.90;;;;;;5130745;27;20035;-73
2023/03/19 02:20:30;;;;;;;16.42;3.33;;;12.00;99.90;;;;;;5107881;27;20035;-73
2023/03/19 02:23:24;;;;;;;17.15;3.08;;;12.00;99.90;;;;;;5116183;27;20047;-73
2023/03/19 02:25:59;;;;;;;9.52;3.05;;;12.00;99.90;;;;;;5118313;27;20460;-73
2023/03/19 02:28:25;;;;;;;10.23;3.13;;;12.00;99.90;;;;;;5120433;27;20492;-73
2023/03/19 02:30:51;;;;;;;13.65;3.45;;;12.00;99.90;;;;;;5113065;28;20035;-74
2023/03/19 02:33:17;;;;;;;6.38;2.47;;;12.00;99.90;;;;;;5119457;27;20424;-73
2023/03/19 02:35:46;;;;;;;10.77;2.95;;;12.10;99.90;;;;;;5114025;27;20066;-73
2023/03/19 02:38:13;;;;;;;8.52;2.67;;;12.00;99.90;;;;;;5120097;27;20081;-74
2023/03/19 02:40:46;;;;;;;10.32;2.72;;;12.10;99.90;;;;;;5115218;27;20490;-74
2023/03/19 02:43:12;;;;;;;9.20;2.72;;;12.00;99.90;;;;;;5107002;27;20042;-74
2023/03/19 02:45:38;;;;;;;9.43;2.27;;;12.10;99.90;;;;;;5122015;27;20035;-74
2023/03/19 02:48:05;;;;;;;14.85;2.80;;;12.00;99.90;;;;;;5134191;27;20035;-74
2023/03/19 02:50:31;;;;;;;7.22;2.67;;;12.00;99.90;;;;;;5121899;27;20027;-74
2023/03/19 02:52:56;;;;;;;17.60;4.83;;;12.00;99.90;;;;;;5119766;27;20077;-74
2023/03/19 02:55:22;;;;;;;10.37;2.80;;;11.90;99.90;;;;;;5135698;27;20504;-74
2023/03/19 02:57:48;;;;;;;9.10;3.03;;;12.00;99.90;;;;;;5120743;28;20032;-74
2023/03/19 03:00:16;;;;;;;6.63;2.37;;;11.90;99.90;;;;;;5119451;27;20161;-74
2023/03/19 03:02:42;;;;;;;11.60;3.72;;;12.00;99.90;;;;;;5122851;27;20031;-74
2023/03/19 03:05:08;;;;;;;9.80;2.50;;;11.90;99.90;;;;;;5118756;27;20034;-75
2023/03/19 03:07:35;;;;;;;10.40;2.60;;;11.90;99.90;;;;;;5111647;28;20031;-75
2023/03/19 03:10:01;;;;;;;6.28;2.95;;;11.90;99.90;;;;;;5110149;27;20028;-75
2023/03/19 03:12:26;;;;;;;13.40;3.65;;;11.90;99.90;;;;;;5114718;28;20036;-74
2023/03/19 03:14:52;;;;;;;16.27;3.03;;;11.90;99.90;;;;;;5106525;28;20027;-74
2023/03/19 03:17:18;;;;;;;10.23;2.87;;;11.80;99.90;;;;;;5121627;28;20028;-75
2023/03/19 03:19:43;;;;;;;18.90;3.00;;;11.90;99.90;;;;;;5117492;27;20031;-74
2023/03/19 03:22:09;;;;;;;13.13;3.23;;;11.90;99.90;;;;;;5122209;27;20024;-74
2023/03/19 03:24:35;;;;;;;11.38;2.60;;;11.80;99.90;;;;;;5120058;28;20020;-75
2023/03/19 03:27:01;;;;;;;11.02;3.03;;;11.80;99.90;;;;;;5119449;28;20036;-76
2023/03/19 03:29:26;;;;;;;19.20;3.70;;;11.80;99.90;;;;;;5124704;27;20024;-76
2023/03/19 03:31:52;;;;;;;9.07;3.10;;;11.80;99.90;;;;;;5120988;27;20031;-76
2023/03/19 03:34:18;;;;;;;7.97;3.27;;;11.80;99.90;;;;;;5122234;27;20035;-75
2023/03/19 03:36:45;;;;;;;17.23;3.60;;;11.80;99.90;;;;;;5123105;27;20031;-75
2023/03/19 03:39:11;;;;;;;17.95;4.32;;;11.80;99.90;;;;;;5123041;27;20202;-75
2023/03/19 03:41:37;;;;;;;15.40;3.30;;;11.80;99.90;;;;;;5118367;27;20548;-75
2023/03/19 03:44:03;;;;;;;10.30;2.80;;;11.80;99.90;;;;;;5124859;27;20284;-74
2023/03/19 03:46:28;;;;;;;7.83;2.73;;;11.80;99.90;;;;;;5124351;27;20039;-75
2023/03/19 03:48:54;;;;;;;7.67;3.03;;;11.80;99.90;;;;;;5126729;27;20623;-75
2023/03/19 03:51:21;;;;;;;7.27;2.50;;;11.80;99.90;;;;;;5119336;27;20031;-74
2023/03/19 03:53:46;;;;;;;13.93;4.07;;;11.90;99.90;;;;;;5120696;27;20062;-75
2023/03/19 03:56:12;;;;;;;14.77;2.77;;;11.80;99.90;;;;;;5122258;27;20059;-75
2023/03/19 03:58:38;;;;;;;10.00;2.90;;;11.80;99.90;;;;;;5105651;27;20062;-75
2023/03/19 04:01:04;;;;;;;17.97;3.43;;;11.90;99.90;;;;;;5119369;27;20027;-74
2023/03/19 04:03:30;;;;;;;;;;;11.80;99.90;;;;;;5120809;27;20366;-74
2023/03/19 04:05:56;;;;;;;10.20;2.60;;;11.90;99.90;;;;;;5122014;27;19907;-74
2023/03/19 04:08:22;;;;;;;9.73;3.10;;;11.80;99.90;;;;;;5115754;27;20019;-74
2023/03/19 04:10:48;;;;;;;8.80;2.63;;;11.80;99.90;;;;;;5121119;27;20027;-74
2023/03/19 04:13:13;;;;;;;10.87;2.07;;;11.90;99.90;;;;;;5126664;27;20393;-74
2023/03/19 04:15:42;;;;;;;7.43;2.50;;;11.90;99.90;;;;;;5118271;27;20398;-74
2023/03/19 04:18:07;;;;;;;7.65;2.10;;;11.80;99.90;;;;;;5120950;27;20269;-74
2023/03/19 04:20:33;;;;;;;12.18;2.38;;;11.90;99.90;;;;;;5119303;27;20404;-74
2023/03/19 04:22:59;;;;;;;12.23;2.40;;;11.90;99.90;;;;;;5122250;27;20576;-74
2023/03/19 04:25:25;;;;;;;7.97;2.33;;;11.90;99.90;;;;;;5116955;27;20076;-74
2023/03/19 04:27:51;;;;;;;10.85;2.95;;;11.90;99.90;;;;;;5123620;27;20125;-75
2023/03/19 04:30:17;;;;;;;7.55;2.90;;;11.90;99.90;;;;;;5109641;27;20485;-74
2023/03/19 04:32:43;;;;;;;11.70;2.78;;;11.90;99.90;;;;;;5122520;27;20024;-74
2023/03/19 04:35:09;;;;;;;12.50;3.03;;;11.90;99.90;;;;;;5120843;27;20032;-74
2023/03/19 04:37:35;;;;;;;8.90;3.33;;;11.80;99.90;;;;;;5124010;27;20096;-75
2023/03/19 04:40:00;;;;;;;10.70;3.27;;;11.90;99.90;;;;;;5124569;27;20700;-75
2023/03/19 04:42:26;;;;;;;10.23;2.67;;;11.80;99.90;;;;;;5109110;28;20125;-75
2023/03/19 04:44:52;;;;;;;11.27;3.13;;;11.90;99.90;;;;;;5120497;27;20532;-75
2023/03/19 04:47:17;;;;;;;6.85;2.60;;;11.90;99.90;;;;;;5113018;27;20562;-75
2023/03/19 04:49:43;;;;;;;12.53;4.60;;;11.80;99.90;;;;;;5113656;27;20031;-74
2023/03/19 04:52:09;;;;;;;10.23;2.80;;;11.90;99.90;;;;;;5118072;27;20031;-74
2023/03/19 04:54:34;;;;;;;8.80;3.00;;;11.80;99.90;;;;;;5119252;27;20110;-74
2023/03/19 04:57:00;;;;;;;8.70;3.17;;;11.80;99.90;;;;;;5116293;27;20059;-74
2023/03/19 04:59:26;;;;;;;11.90;2.73;;;11.90;99.90;;;;;;5116962;27;20027;-74
2023/03/19 05:01:52;;;;;;;11.57;2.78;;;11.80;99.90;;;;;;5122162;27;20036;-74
2023/03/19 05:04:17;;;;;;;17.43;3.93;;;11.80;99.90;;;;;;5123191;27;20465;-74
2023/03/19 05:06:43;;;;;;;11.33;3.00;;;11.80;99.90;;;;;;5119035;27;20046;-74
2023/03/19 05:09:08;;;;;;;13.23;3.33;;;11.80;99.90;;;;;;5114512;27;20095;-74
2023/03/19 05:11:34;;;;;;;7.13;3.23;;;11.80;99.90;;;;;;5121244;27;20030;-75
2023/03/19 05:14:00;;;;;;;6.30;3.30;;;11.80;99.90;;;;;;5120324;27;20031;-74
2023/03/19 05:16:26;;;;;;;8.60;3.60;;;11.80;99.90;;;;;;5126882;27;20039;-75
2023/03/19 05:18:52;;;;;;;7.05;2.75;;;11.80;99.90;;;;;;5123341;27;20781;-75
2023/03/19 05:21:17;;;;;;;5.97;2.60;;;11.80;99.90;;;;;;5113677;27;20067;-75
2023/03/19 05:23:43;;;;;;;6.73;3.10;;;11.80;99.90;;;;;;5121334;27;20126;-75
2023/03/19 05:26:10;;;;;;;6.25;2.83;;;11.70;99.90;;;;;;5120573;27;20031;-74
2023/03/19 05:28:36;;;;;;;;;;;11.70;99.90;;;;;;5110807;27;20042;-77
2023/03/19 05:31:03;;;;;;;13.30;3.33;;;11.70;99.90;;;;;;5104913;27;20701;-78
2023/03/19 05:33:29;;;;;;;9.23;3.25;;;11.70;99.90;;;;;;5103818;27;20545;-78
2023/03/19 05:35:56;;;;;;;12.07;3.65;;;11.70;99.90;;;;;;5109702;27;20382;-78
2023/03/19 05:38:21;;;;;;;12.40;4.43;;;11.70;99.90;;;;;;5108258;27;20031;-78
2023/03/19 05:40:47;;;;;;;8.63;3.50;;;11.60;99.90;;;;;;5105484;27;20031;-77
2023/03/19 05:43:13;;;;;;;11.23;3.60;;;11.60;99.90;;;;;;5111564;27;20035;-78
2023/03/19 05:45:39;;;;;;;9.57;3.15;;;11.60;99.90;;;;;;5113926;27;20055;-77
2023/03/19 05:48:05;;;;;;;11.32;3.40;;;11.70;99.90;;;;;;5113977;27;20505;-77
2023/03/19 05:50:32;;;;;;;13.65;3.60;;;11.60;99.90;;;;;;5109361;27;20027;-77
2023/03/19 05:52:58;;;;;;;11.02;3.83;;;11.60;99.90;;;;;;5103592;27;20401;-78
2023/03/19 05:55:24;;;;;;;14.57;4.03;;;11.60;99.90;;;;;;5109239;27;20035;-76
2023/03/19 05:57:50;;;;;;;9.65;3.80;;;11.60;99.90;;;;;;5112654;27;20031;-76
2023/03/19 06:00:16;;;;;;;11.53;3.87;;;11.60;99.90;;;;;;5113660;27;20031;-77
2023/03/19 06:02:43;;;;;;;15.73;3.65;;;11.60;99.90;;;;;;5108069;27;20031;-77
2023/03/19 06:05:09;;;;;;;10.07;3.58;;;11.60;99.90;;;;;;5114443;27;20034;-76
2023/03/19 06:07:35;;;;;;;13.77;3.85;;;11.50;99.90;;;;;;5113459;27;20479;-76
2023/03/19 06:10:02;;;;;;;16.30;4.55;;;11.60;99.90;;;;;;5105526;27;20034;-76
2023/03/19 06:12:28;;;;;;;11.38;4.28;;;11.60;99.90;;;;;;5105253;27;20439;-76
2023/03/19 06:14:53;;;;;;;13.23;3.57;;;11.60;99.90;;;;;;5106755;27;20027;-76
2023/03/19 06:17:19;;;;;;;9.93;3.93;;;11.60;99.90;;;;;;5112183;27;20031;-76
2023/03/19 06:19:45;;;;;;;11.80;4.07;;;11.70;99.90;;;;;;5106324;28;20398;-78
2023/03/19 06:22:11;;;;;;;9.73;4.07;;;11.60;99.90;;;;;;5102192;28;20030;-78
2023/03/19 06:24:36;;;;;;;10.63;3.85;;;11.60;99.90;;;;;;5125438;27;20031;-78
2023/03/19 06:27:02;;;;;;;8.83;4.10;;;11.70;99.90;;;;;;5108141;27;21804;-78
2023/03/19 06:29:28;;;;;;;8.35;3.70;;;11.70;99.90;;;;;;5110281;27;20072;-78
2023/03/19 06:31:54;;;;;;;8.70;3.70;;;11.60;99.90;;;;;;5112745;27;20032;-78
2023/03/19 06:34:20;;;;;;;7.60;3.37;;;11.70;99.90;;;;;;5100217;27;20024;-78
2023/03/19 06:36:46;;;;;;;9.43;3.38;;;11.70;99.90;;;;;;5111549;28;20122;-78
2023/03/19 06:39:11;;;;;;;19.47;4.93;;;11.70;99.90;;;;;;5107819;28;20118;-78
2023/03/19 06:41:37;;;;;;;10.73;3.60;;;11.70;99.90;;;;;;5106243;28;20178;-78
2023/03/19 06:44:03;;;;;;;12.57;3.55;;;11.80;99.90;;;;;;5110735;28;20889;-78
2023/03/19 06:46:30;;;;;;;8.60;3.22;;;11.80;99.90;;;;;;5106415;27;20043;-78
2023/03/19 06:48:56;;;;;;;9.63;3.55;;;11.80;99.90;;;;;;5107544;28;20144;-77
2023/03/19 06:51:22;;;;;;;7.45;3.47;;;11.80;99.90;;;;;;5110011;28;20031;-78
2023/03/19 06:53:48;;;;;;;12.30;5.25;;;11.80;99.90;;;;;;5114948;28;20446;-78
2023/03/19 06:56:14;;;;;;;10.93;3.85;;;11.90;99.90;;;;;;5104559;28;20039;-78
2023/03/19 06:58:40;;;;;;;11.73;3.95;;;11.90;99.90;;;;;;5110764;28;20598;-78
2023/03/19 07:01:06;;;;;;;9.27;3.72;;;11.90;99.90;;;;;;5106778;28;20147;-78
2023/03/19 07:03:32;;;;;;;6.88;3.17;;;11.80;99.90;;;;;;5125586;27;20043;-78
2023/03/19 07:05:57;;;;;;;11.83;3.50;;;11.80;99.90;;;;;;5109032;28;20043;-78
2023/03/19 07:08:28;;;;;;;13.40;3.67;;;11.80;99.90;;;;;;5110667;27;20103;-78
2023/03/19 07:11:01;;;;;;;16.00;4.03;;;11.90;99.90;;;;;;5117430;27;20031;-77
2023/03/19 07:13:27;;;;;;;12.35;3.35;;;11.80;99.90;;;;;;5111204;27;20094;-72
2023/03/19 07:15:53;;;;;;;14.15;4.15;;;11.90;99.90;;;;;;5119147;27;20126;-72
2023/03/19 07:18:18;;;;;;;11.20;3.43;;;11.80;99.90;;;;;;5108734;27;20055;-70
2023/03/19 07:20:45;;;;;;;9.33;3.13;;;11.90;99.90;;;;;;5107713;27;20396;-70
2023/03/19 07:23:10;;;;;;;11.80;4.18;;;11.80;99.90;;;;;;5113060;27;20477;-70
2023/03/19 07:25:36;;;;;;;10.60;3.73;;;11.90;99.90;;;;;;5114793;27;20126;-70
2023/03/19 07:28:02;;;;;;;13.07;4.27;;;11.80;99.90;;;;;;5111086;27;20031;-69
2023/03/19 07:30:27;;;;;;;9.73;3.60;;;11.80;99.90;;;;;;5112346;27;20043;-70
2023/03/19 07:32:54;;;;;;;10.37;3.57;;;11.90;99.90;;;;;;5115415;27;20034;-69
2023/03/19 07:35:20;;;;;;;8.65;3.78;;;11.90;99.90;;;;;;5113040;27;20059;-70
2023/03/19 07:37:45;;;;;;;13.70;4.43;;;11.90;99.90;;;;;;5112389;27;20523;-72
2023/03/19 07:40:11;;;;;;;15.13;4.63;;;11.90;99.90;;;;;;5105467;27;20065;-70
2023/03/19 07:42:37;;;;;;;10.07;4.43;;;11.80;99.90;;;;;;5108994;28;20122;-70
2023/03/19 07:45:03;;;;;;;16.33;5.53;;;11.80;99.90;;;;;;5109271;27;20296;-70
2023/03/19 07:47:29;;;;;;;12.45;4.28;;;11.90;99.90;;;;;;5128783;27;20366;-71
2023/03/19 07:49:56;;;;;;;14.85;4.03;;;11.90;99.90;;;;;;5125383;27;21000;-70
2023/03/19 07:52:22;;;;;;;20.90;4.82;;;12.00;99.90;;;;;;5107020;27;20466;-71
2023/03/19 07:54:49;;;;;;;12.35;4.25;;;12.00;99.90;;;;;;5104559;27;20032;-71
2023/03/19 07:57:15;;;;;;;8.60;4.15;;;12.00;99.90;;;;;;5106063;27;20053;-71
2023/03/19 07:59:41;;;;;;;12.13;4.18;;;12.10;99.90;;;;;;5111070;27;20080;-71
2023/03/19 08:02:13;;;;;;;11.02;4.32;;;12.10;99.90;;;;;;5113614;27;20039;-71
2023/03/19 08:04:38;;;;;;;7.63;4.00;;;12.20;99.90;;;;;;5110619;27;20036;-71
2023/03/19 08:07:05;;;;;;;7.53;4.37;;;12.20;99.90;;;;;;5107552;27;20069;-71
2023/03/19 08:09:31;;;;;;;;;;;12.20;99.90;;;;;;5110189;27;20282;-70
2023/03/19 08:11:56;;;;;;;14.80;4.70;;;12.30;99.90;;;;;;5112529;27;19915;-71
2023/03/19 08:14:22;;;;;;;12.87;3.67;;;12.30;99.90;;;;;;5105561;27;20044;-71
2023/03/19 08:16:48;;;;;;;10.65;3.30;;;12.20;99.90;;;;;;5106657;27;20074;-71
2023/03/19 08:19:15;;;;;;;12.68;3.67;;;12.30;99.90;;;;;;5108084;27;20114;-70
2023/03/19 08:21:41;;;;;;;10.63;3.67;;;12.30;99.90;;;;;;5111981;27;20500;-71
2023/03/19 08:24:07;;;;;;;11.98;4.18;;;12.40;99.90;;;;;;5114276;27;20027;-71
2023/03/19 08:26:33;;;;;;;7.53;3.70;;;12.50;99.90;;;;;;5109458;27;20084;-70
2023/03/19 08:28:59;;;;;;;13.00;3.73;;;12.50;99.90;;;;;;5111958;27;20024;-70
2023/03/19 08:31:25;;;;;;;10.88;4.03;;;12.50;99.90;;;;;;5113851;27;20497;-70
2023/03/19 08:33:51;;;;;;;6.88;3.03;;;12.60;99.90;;;;;;5113552;27;20420;-69
2023/03/19 08:36:16;;;;;;;10.80;4.00;;;12.70;99.90;;;;;;5107374;27;20042;-71
2023/03/19 08:38:42;;;;;;;9.93;3.53;;;12.70;99.90;;;;;;5113721;27;20039;-71
2023/03/19 08:41:08;;;;;;;11.83;3.77;;;12.80;99.90;;;;;;5106074;27;20034;-71
2023/03/19 08:43:36;;;;;;;13.15;3.65;;;12.90;99.90;;;;;;5112982;27;20050;-72
2023/03/19 08:46:03;;;;;;;10.75;3.28;;;12.90;99.90;;;;;;5106173;27;20655;-73
2023/03/19 08:48:29;;;;;;;11.20;4.88;;;13.00;99.90;;;;;;5106579;27;20024;-75
2023/03/19 08:50:56;;;;;;;11.77;3.55;;;13.00;99.90;;;;;;5103390;27;20062;-74
2023/03/19 08:53:23;;;;;;;6.80;3.08;;;13.00;99.90;;;;;;5106296;27;20032;-74
2023/03/19 08:55:53;;;;;;;12.52;4.00;;;13.10;99.90;;;;;;5103338;28;20088;-74
2023/03/19 08:58:19;;;;;;;9.13;3.17;;;13.00;99.90;;;;;;5105887;27;20031;-74
2023/03/19 09:00:46;;;;;;;9.45;3.80;;;13.00;99.90;;;;;;5104455;27;20153;-74
2023/03/19 09:03:11;;;;;;;7.35;3.28;;;13.00;99.90;;;;;;5100715;27;20036;-71
2023/03/19 09:05:37;;;;;;;7.50;3.37;;;13.10;99.90;;;;;;5101356;27;20039;-75
2023/03/19 09:08:03;;;;;;;8.00;3.10;;;13.20;99.90;;;;;;5113790;27;20280;-74
2023/03/19 09:10:28;;;;;;;8.43;3.50;;;13.30;99.90;;;;;;5111260;27;20019;-72
2023/03/19 09:12:54;;;;;;;13.97;3.77;;;13.30;99.90;;;;;;5109576;27;20023;-77
2023/03/19 09:15:20;;;;;;;9.07;3.27;;;13.20;99.90;;;;;;5112792;27;20155;-76
2023/03/19 09:17:45;;;;;;;8.60;3.13;;;13.50;99.90;;;;;;5109858;27;20100;-73
2023/03/19 09:20:11;;;;;;;8.27;3.13;;;13.90;99.90;;;;;;5113037;27;20164;-78
2023/03/19 09:22:37;;;;;;;14.32;3.55;;;14.30;99.90;;;;;;5109188;27;20032;-73
2023/03/19 09:25:03;;;;;;;4.83;2.87;;;14.50;99.90;;;;;;5113327;27;20042;-73
2023/03/19 09:27:28;;;;;;;6.40;2.97;;;14.50;99.90;;;;;;5113186;27;20386;-83
2023/03/19 09:29:54;;;;;;;4.60;2.40;;;14.60;99.90;;;;;;5112622;27;20028;-78
2023/03/19 09:32:20;;;;;;;5.33;2.60;;;15.40;99.90;;;;;;5108426;27;20031;-73
2023/03/19 09:34:46;;;;;;;9.48;3.08;;;15.40;99.90;;;;;;5108850;27;20035;-72
2023/03/19 09:37:12;;;;;;;5.60;2.70;;;14.80;99.90;;;;;;5105434;27;20857;-73
2023/03/19 09:39:37;;;;;;;7.10;2.60;;;14.50;99.90;;;;;;5113500;27;20027;-73
2023/03/19 09:42:37;;;;;;;10.20;2.77;;;14.60;99.90;;;;;;5111344;27;20030;-74
2023/03/19 09:45:03;;;;;;;4.55;2.53;;;15.00;99.90;;;;;;5108814;27;20038;-71
2023/03/19 09:47:35;;;;;;;5.18;2.38;;;17.20;98.40;;;;;;5121893;27;20024;-71
2023/03/19 09:50:10;;;;;;;6.13;3.10;;;17.10;96.60;;;;;;5106808;27;20071;-79
2023/03/19 09:52:55;;;;;;;6.10;2.80;;;16.20;97.00;;;;;;5103141;27;20027;-72
2023/03/19 09:55:26;;;;;;;5.68;2.05;;;15.50;97.30;;;;;;5113327;27;20040;-73
2023/03/19 09:57:54;;;;;;;5.70;2.20;;;15.20;98.50;;;;;;5099361;27;20540;-77
2023/03/19 10:00:24;;;;;;;5.20;2.05;;;15.20;98.60;;;;;;5102055;27;20035;-77
2023/03/19 10:03:00;;;;;;;7.95;2.33;;;15.00;99.50;;;;;;5105232;27;20115;-74
2023/03/19 10:05:45;;;;;;;6.97;2.15;;;15.00;98.80;;;;;;5096251;27;20034;-75
2023/03/19 10:08:30;;;;;;;6.13;2.00;;;14.80;99.90;;;;;;5096809;28;20051;-79
2023/03/19 10:11:03;;;;;;;4.63;2.10;;;14.80;99.60;;;;;;5097676;27;20114;-79
2023/03/19 10:13:54;;;;;;;4.90;2.50;;;14.80;99.60;;;;;;5108012;27;20026;-81
2023/03/19 10:16:23;;;;;;;5.60;2.20;;;15.00;99.40;;;;;;5123916;27;20036;-76
2023/03/19 10:18:52;;;;;;;4.05;2.15;;;15.30;99.40;;;;;;5108832;27;20034;-73
2023/03/19 10:21:28;;;;;;;2.88;1.90;;;15.30;98.90;;;;;;5105948;27;20027;-73
2023/03/19 10:24:06;;;;;;;6.77;2.03;;;15.50;98.40;;;;;;5107707;27;20685;-78
2023/03/19 10:26:34;;;;;;;5.65;1.67;;;15.30;98.20;;;;;;5105465;27;20050;-78
2023/03/19 10:29:03;;;;;;;4.97;2.10;;;15.40;98.80;;;;;;5107233;28;20377;-74
2023/03/19 10:31:49;;;;;;;6.28;1.75;;;15.30;97.80;;;;;;5106076;27;20417;-75
2023/03/19 10:34:31;;;;;;;3.03;1.67;;;15.30;98.80;;;;;;5107360;27;20055;-80
2023/03/19 10:37:02;;;;;;;3.38;1.50;;;15.40;98.50;;;;;;5115588;27;20035;-75
2023/03/19 10:39:31;;;;;;;4.15;1.60;;;15.60;97.50;;;;;;5106452;27;20024;-72
2023/03/19 10:42:24;;;;;;;6.72;2.17;;;15.60;97.90;;;;;;5116775;27;20089;-73
2023/03/19 10:45:01;;;;;;;3.60;1.83;;;15.70;97.70;;;;;;5104995;27;20031;-74
2023/03/19 10:47:26;;;;;;;4.75;1.85;;;15.90;98.60;;;;;;5103610;28;20028;-73
2023/03/19 10:49:52;;;;;;;3.83;2.27;;;16.00;97.50;;;;;;5103040;28;20104;-73
2023/03/19 10:52:22;;;;;;;6.50;1.60;;;16.00;96.50;;;;;;5096612;28;20028;-74
2023/03/19 10:54:55;;;;;;;6.47;1.83;;;16.00;95.70;;;;;;5096869;28;20400;-72
2023/03/19 10:57:24;;;;;;;4.00;1.70;;;16.10;95.90;;;;;;5111543;28;20035;-74
2023/03/19 10:59:50;;;;;;;3.67;1.58;;;16.50;96.10;;;;;;5103507;28;20028;-73
2023/03/19 11:02:30;;;;;;;2.03;1.40;;;16.60;95.80;;;;;;5108085;28;20521;-74
2023/03/19 11:05:11;;;;;;;5.28;1.50;;;16.80;95.00;;;;;;5103720;28;20043;-79
2023/03/19 11:07:37;;;;;;;4.43;1.40;;;16.80;95.60;;;;;;5107029;28;20030;-74
2023/03/19 11:10:04;;;;;;;2.78;1.25;;;16.70;94.40;;;;;;5107489;28;20447;-69
2023/03/19 11:12:30;;;;;;;2.38;1.42;;;16.70;94.10;;;;;;5105671;28;20028;-70
2023/03/19 11:14:57;;;;;;;3.50;1.50;;;16.60;93.90;;;;;;5106593;28;20026;-69
2023/03/19 11:17:25;;;;;;;3.38;1.45;;;16.70;94.50;;;;;;5114283;27;20038;-69
2023/03/19 11:19:56;;;;;;;5.72;1.52;;;16.50;94.90;;;;;;5103668;28;20026;-68
2023/03/19 11:22:31;;;;;;;8.48;1.40;;;16.70;94.90;;;;;;5107522;28;20078;-68
2023/03/19 11:25:01;;;;;;;2.45;1.30;;;16.80;93.90;;;;;;5106485;28;20027;-68
2023/03/19 11:27:32;;;;;;;4.50;1.38;;;16.40;94.50;;;;;;5107611;28;20080;-68
2023/03/19 11:29:58;;;;;;;3.45;1.40;;;16.40;94.10;;;;;;5109552;28;20024;-68
2023/03/19 11:32:52;;;;;;;7.60;1.87;;;16.40;94.00;;;;;;5109943;27;20034;-68
2023/03/19 11:35:27;;;;;;;2.15;1.25;;;16.40;94.90;;;;;;5097329;28;20043;-68
2023/03/19 11:37:56;;;;;;;2.45;1.30;;;16.70;94.20;;;;;;5108119;28;20027;-68
2023/03/19 11:40:51;;;;;;;6.28;1.50;;;16.90;94.50;;;;;;5105881;28;20059;-69
2023/03/19 11:43:55;;;;;;;4.82;1.65;;;17.00;94.30;;;;;;5099909;27;20624;-68
2023/03/19 11:46:53;;;;;;;3.72;1.70;;;17.20;93.60;;;;;;5101560;28;20069;-68
2023/03/19 11:49:37;;;;;;;4.88;2.55;;;17.60;92.90;;;;;;5110263;27;20027;-68
2023/03/19 11:52:10;;;;;;;4.80;1.55;;;18.30;93.90;;;;;;5107085;28;20028;-68
2023/03/19 11:54:43;;;;;;;2.03;1.20;;;18.40;91.60;;;;;;5103428;28;20726;-67
2023/03/19 11:57:47;;;;;;;4.47;1.77;;;18.00;91.90;;;;;;5114799;27;20126;-68
2023/03/19 12:00:34;;;;;;;3.22;1.17;;;18.00;91.10;;;;;;5103062;27;20059;-69
2023/03/19 12:03:15;;;;;;;3.40;1.33;;;17.80;91.50;;;;;;5106940;27;20037;-68
2023/03/19 12:05:59;;;;;;;2.15;1.40;;;17.60;92.10;;;;;;5118653;27;20109;-68
2023/03/19 12:08:47;;;;;;;3.13;1.33;;;17.90;92.30;;;;;;5103953;27;20042;-68
2023/03/19 12:11:29;;;;;;;2.13;1.05;;;17.60;90.80;;;;;;5109259;27;20579;-69
2023/03/19 12:14:17;;;;;;;4.03;1.67;;;17.30;91.90;;;;;;5108519;27;20096;-68
2023/03/19 12:16:43;;;;;;;3.72;1.33;;;17.50;92.00;;;;;;5112374;27;20501;-68
2023/03/19 12:19:27;;;;;;;2.35;1.08;;;17.20;91.90;;;;;;5108163;27;21025;-68
2023/03/19 12:22:16;;;;;;;3.35;1.35;;;17.20;91.90;;;;;;5104890;27;20523;-69
2023/03/19 12:25:15;;;;;;;1.75;0.90;;;17.00;91.30;;;;;;5101879;27;20031;-69
2023/03/19 12:28:06;;;;;;;3.15;1.60;;;16.90;91.70;;;;;;5105751;27;20126;-69
2023/03/19 12:30:34;;;;;;;3.45;1.58;;;16.90;93.10;;;;;;5102521;27;20135;-69
2023/03/19 12:33:13;;;;;;;1.98;1.05;;;17.00;92.60;;;;;;5102448;28;20497;-69
2023/03/19 12:35:42;;;;;;;4.78;1.17;;;16.70;92.30;;;;;;5104328;27;20666;-68
2023/03/19 12:38:47;;;;;;;2.22;1.20;;;16.50;92.50;;;;;;5104501;27;20024;-69
2023/03/19 12:41:27;;;;;;;5.18;1.80;;;16.50;92.70;;;;;;5092136;28;20031;-69
2023/03/19 12:44:38;;;;;;;2.33;1.10;;;16.60;93.50;;;;;;5107047;27;20404;-69
2023/03/19 12:47:26;;;;;;;2.33;1.30;;;16.60;93.60;;;;;;5102274;27;20045;-68
2023/03/19 12:50:06;;;;;;;2.97;1.23;;;16.80;93.80;;;;;;5120721;27;20119;-67
2023/03/19 12:52:49;;;;;;;1.92;0.80;;;16.70;93.20;;;;;;5104510;27;20035;-69
2023/03/19 12:55:39;;;;;;;2.67;1.23;;;16.90;93.00;;;;;;5100366;27;20042;-69